sensor_id;sensor_type;location;lat;lon;timestamp;temperature;humidity
13589;DHT22;6865;52.552;13.434;2023-02-28T00:01:03;1.90;99.90
13589;DHT22;6865;52.552;13.434;2023-02-28T00:03:30;1.90;99.90
13589;DHT22;6865;52.552;13.434;2023-02-28T00:05:57;2.00;99.90
13589;DHT22;6865;52.552;13.434;2023-02-28T00:08:23;2.00;99.90
13589;DHT22;6865;52.552;13.434;2023-02-28T00:10:50;1.90;99.90
13589;DHT22;6865;52.552;13.434;2023-02-28T00:13:17;2.00;99.90
13589;DHT22;6865;52.552;13.434;2023-02-28T00:15:43;1.80;99.90
13589;DHT22;6865;52.552;13.434;2023-02-28T00:18:11;0.20;99.90
13589;DHT22;6865;52.552;13.434;2023-02-28T00:20:38;1.90;99.90
13589;DHT22;6865;52.552;13.434;2023-02-28T00:23:05;2.00;99.90
13589;DHT22;6865;52.552;13.434;2023-02-28T00:25:31;2.00;99.90
13589;DHT22;6865;52.552;13.434;2023-02-28T00:27:58;2.10;99.90
13589;DHT22;6865;52.552;13.434;2023-02-28T00:30:24;2.10;99.90
13589;DHT22;6865;52.552;13.434;2023-02-28T00:32:51;2.10;99.90
13589;DHT22;6865;52.552;13.434;2023-02-28T00:35:18;2.10;99.90
13589;DHT22;6865;52.552;13.434;2023-02-28T00:37:44;2.20;99.90
13589;DHT22;6865;52.552;13.434;2023-02-28T00:40:11;2.20;99.90
13589;DHT22;6865;52.552;13.434;2023-02-28T00:42:39;2.20;99.90
13589;DHT22;6865;52.552;13.434;2023-02-28T00:45:06;2.30;99.90
13589;DHT22;6865;52.552;13.434;2023-02-28T00:47:34;2.30;99.90
13589;DHT22;6865;52.552;13.434;2023-02-28T00:50:02;2.30;99.90
13589;DHT22;6865;52.552;13.434;2023-02-28T00:52:29;2.30;99.90
13589;DHT22;6865;52.552;13.434;2023-02-28T00:54:55;2.30;99.90
13589;DHT22;6865;52.552;13.434;2023-02-28T00:57:22;2.20;99.90
13589;DHT22;6865;52.552;13.434;2023-02-28T00:59:49;2.70;99.90
13589;DHT22;6865;52.552;13.434;2023-02-28T01:02:16;2.30;99.90
13589;DHT22;6865;52.552;13.434;2023-02-28T01:04:42;2.30;99.90
13589;DHT22;6865;52.552;13.434;2023-02-28T01:07:09;2.30;99.90
13589;DHT22;6865;52.552;13.434;2023-02-28T01:09:36;2.30;99.90
13589;DHT22;6865;52.552;13.434;2023-02-28T01:12:03;2.20;99.90
13589;DHT22;6865;52.552;13.434;2023-02-28T01:14:29;2.20;99.90
13589;DHT22;6865;52.552;13.434;2023-02-28T01:16:56;2.10;99.90
13589;DHT22;6865;52.552;13.434;2023-02-28T01:19:25;2.10;99.90
13589;DHT22;6865;52.552;13.434;2023-02-28T01:21:52;2.00;99.90
13589;DHT22;6865;52.552;13.434;2023-02-28T01:24:19;2.00;99.90
13589;DHT22;6865;52.552;13.434;2023-02-28T01:26:45;2.00;99.90
13589;DHT22;6865;52.552;13.434;2023-02-28T01:29:12;1.90;99.90
13589;DHT22;6865;52.552;13.434;2023-02-28T01:31:39;1.80;99.90
13589;DHT22;6865;52.552;13.434;2023-02-28T01:34:05;1.70;99.90
13589;DHT22;6865;52.552;13.434;2023-02-28T01:36:32;1.60;99.90
13589;DHT22;6865;52.552;13.434;2023-02-28T01:38:59;1.50;99.90
13589;DHT22;6865;52.552;13.434;2023-02-28T01:41:29;1.40;99.90
13589;DHT22;6865;52.552;13.434;2023-02-28T01:43:59;1.30;99.90
13589;DHT22;6865;52.552;13.434;2023-02-28T01:46:31;1.40;99.90
13589;DHT22;6865;52.552;13.434;2023-02-28T01:49:11;1.50;99.90
13589;DHT22;6865;52.552;13.434;2023-02-28T01:51:45;1.20;99.90
13589;DHT22;6865;52.552;13.434;2023-02-28T01:54:22;1.50;99.90
13589;DHT22;6865;52.552;13.434;2023-02-28T01:56:55;1.40;99.90
13589;DHT22;6865;52.552;13.434;2023-02-28T01:59:28;1.40;99.90
13589;DHT22;6865;52.552;13.434;2023-02-28T02:01:56;1.30;99.90
13589;DHT22;6865;52.552;13.434;2023-02-28T02:04:26;1.30;99.90
13589;DHT22;6865;52.552;13.434;2023-02-28T02:06:53;1.30;99.90
13589;DHT22;6865;52.552;13.434;2023-02-28T02:09:21;1.30;99.90
13589;DHT22;6865;52.552;13.434;2023-02-28T02:11:47;1.20;99.90
13589;DHT22;6865;52.552;13.434;2023-02-28T02:17:20;1.30;99.90
13589;DHT22;6865;52.552;13.434;2023-02-28T02:20:13;1.30;99.90
13589;DHT22;6865;52.552;13.434;2023-02-28T02:23:20;1.20;99.90
13589;DHT22;6865;52.552;13.434;2023-02-28T02:25:56;1.00;99.90
13589;DHT22;6865;52.552;13.434;2023-02-28T02:28:35;1.00;99.90
13589;DHT22;6865;52.552;13.434;2023-02-28T02:31:30;1.00;99.90
13589;DHT22;6865;52.552;13.434;2023-02-28T02:34:10;0.90;99.90
13589;DHT22;6865;52.552;13.434;2023-02-28T02:36:58;0.70;99.90
13589;DHT22;6865;52.552;13.434;2023-02-28T02:39:43;0.70;99.90
13589;DHT22;6865;52.552;13.434;2023-02-28T02:42:39;0.60;99.90
13589;DHT22;6865;52.552;13.434;2023-02-28T02:45:07;0.60;99.90
13589;DHT22;6865;52.552;13.434;2023-02-28T02:47:37;0.60;99.90
13589;DHT22;6865;52.552;13.434;2023-02-28T02:50:07;0.50;99.90
13589;DHT22;6865;52.552;13.434;2023-02-28T02:52:44;0.40;99.90
13589;DHT22;6865;52.552;13.434;2023-02-28T02:55:13;0.30;99.90
13589;DHT22;6865;52.552;13.434;2023-02-28T02:57:53;0.50;99.90
13589;DHT22;6865;52.552;13.434;2023-02-28T03:00:25;0.40;99.90
13589;DHT22;6865;52.552;13.434;2023-02-28T03:02:54;0.40;99.90
13589;DHT22;6865;52.552;13.434;2023-02-28T03:05:31;0.20;99.90
13589;DHT22;6865;52.552;13.434;2023-02-28T03:07:58;0.10;99.90
13589;DHT22;6865;52.552;13.434;2023-02-28T03:10:46;0.10;99.90
13589;DHT22;6865;52.552;13.434;2023-02-28T03:16:33;0.00;99.90
13589;DHT22;6865;52.552;13.434;2023-02-28T03:19:12;-0.10;99.90
13589;DHT22;6865;52.552;13.434;2023-02-28T03:24:39;-0.20;99.90
13589;DHT22;6865;52.552;13.434;2023-02-28T03:27:23;-1.00;99.90
13589;DHT22;6865;52.552;13.434;2023-02-28T03:33:05;0.60;99.90
13589;DHT22;6865;52.552;13.434;2023-02-28T03:35:40;-0.30;99.90
13589;DHT22;6865;52.552;13.434;2023-02-28T03:38:21;-0.40;99.90
13589;DHT22;6865;52.552;13.434;2023-02-28T03:40:52;-0.40;99.90
13589;DHT22;6865;52.552;13.434;2023-02-28T03:43:24;-0.50;99.90
13589;DHT22;6865;52.552;13.434;2023-02-28T03:45:54;-0.50;99.90
13589;DHT22;6865;52.552;13.434;2023-02-28T03:48:30;-0.80;99.90
13589;DHT22;6865;52.552;13.434;2023-02-28T03:50:59;-0.60;99.90
13589;DHT22;6865;52.552;13.434;2023-02-28T03:53:33;-0.60;99.90
13589;DHT22;6865;52.552;13.434;2023-02-28T03:56:20;-0.60;99.90
13589;DHT22;6865;52.552;13.434;2023-02-28T03:59:15;-0.70;99.90
13589;DHT22;6865;52.552;13.434;2023-02-28T04:01:47;-0.70;99.90
13589;DHT22;6865;52.552;13.434;2023-02-28T04:04:15;-0.70;99.90
13589;DHT22;6865;52.552;13.434;2023-02-28T04:06:43;-0.70;99.90
13589;DHT22;6865;52.552;13.434;2023-02-28T04:09:13;-0.80;99.90
13589;DHT22;6865;52.552;13.434;2023-02-28T04:11:50;-1.10;99.90
13589;DHT22;6865;52.552;13.434;2023-02-28T04:14:22;-0.80;99.90
13589;DHT22;6865;52.552;13.434;2023-02-28T04:16:49;-0.70;99.90
13589;DHT22;6865;52.552;13.434;2023-02-28T04:19:17;-0.70;99.90
13589;DHT22;6865;52.552;13.434;2023-02-28T04:21:47;-0.80;99.90
13589;DHT22;6865;52.552;13.434;2023-02-28T04:24:17;-0.90;99.90
13589;DHT22;6865;52.552;13.434;2023-02-28T04:26:46;-0.80;99.90
13589;DHT22;6865;52.552;13.434;2023-02-28T04:29:22;-0.90;99.90
13589;DHT22;6865;52.552;13.434;2023-02-28T04:31:49;-0.90;99.90
13589;DHT22;6865;52.552;13.434;2023-02-28T04:34:16;-0.90;99.90
13589;DHT22;6865;52.552;13.434;2023-02-28T04:36:43;-0.80;99.90
13589;DHT22;6865;52.552;13.434;2023-02-28T04:39:09;-0.80;99.90
13589;DHT22;6865;52.552;13.434;2023-02-28T04:41:36;-0.80;99.90
13589;DHT22;6865;52.552;13.434;2023-02-28T04:44:03;-0.80;99.90
13589;DHT22;6865;52.552;13.434;2023-02-28T04:46:29;-0.90;99.90
13589;DHT22;6865;52.552;13.434;2023-02-28T04:48:57;-0.80;99.90
13589;DHT22;6865;52.552;13.434;2023-02-28T04:51:24;-0.80;99.90
13589;DHT22;6865;52.552;13.434;2023-02-28T04:53:52;-0.70;99.90
13589;DHT22;6865;52.552;13.434;2023-02-28T04:56:19;-0.70;99.90
13589;DHT22;6865;52.552;13.434;2023-02-28T04:58:46;-0.80;99.90
13589;DHT22;6865;52.552;13.434;2023-02-28T05:01:23;-0.90;99.90
13589;DHT22;6865;52.552;13.434;2023-02-28T05:03:51;-0.80;99.90
13589;DHT22;6865;52.552;13.434;2023-02-28T05:06:19;-0.80;99.90
13589;DHT22;6865;52.552;13.434;2023-02-28T05:08:47;-0.90;99.90
13589;DHT22;6865;52.552;13.434;2023-02-28T05:11:17;-0.90;99.90
13589;DHT22;6865;52.552;13.434;2023-02-28T05:13:44;-0.90;99.90
13589;DHT22;6865;52.552;13.434;2023-02-28T05:16:11;-1.20;99.90
13589;DHT22;6865;52.552;13.434;2023-02-28T05:18:38;-1.00;99.90
13589;DHT22;6865;52.552;13.434;2023-02-28T05:21:12;-1.00;99.90
13589;DHT22;6865;52.552;13.434;2023-02-28T05:23:50;-1.10;99.90
13589;DHT22;6865;52.552;13.434;2023-02-28T05:26:17;-1.20;99.90
13589;DHT22;6865;52.552;13.434;2023-02-28T05:28:43;-1.20;99.90
13589;DHT22;6865;52.552;13.434;2023-02-28T05:31:13;-1.30;99.90
13589;DHT22;6865;52.552;13.434;2023-02-28T05:33:40;-1.30;99.90
13589;DHT22;6865;52.552;13.434;2023-02-28T05:36:07;-1.40;99.90
13589;DHT22;6865;52.552;13.434;2023-02-28T05:38:34;-1.40;99.90
13589;DHT22;6865;52.552;13.434;2023-02-28T05:41:08;-1.40;99.90
13589;DHT22;6865;52.552;13.434;2023-02-28T05:43:35;-1.50;99.90
13589;DHT22;6865;52.552;13.434;2023-02-28T05:46:07;-1.50;99.90
13589;DHT22;6865;52.552;13.434;2023-02-28T05:48:36;-1.60;99.90
13589;DHT22;6865;52.552;13.434;2023-02-28T05:51:03;-1.90;99.90
13589;DHT22;6865;52.552;13.434;2023-02-28T05:53:34;-1.50;99.90
13589;DHT22;6865;52.552;13.434;2023-02-28T05:56:01;-1.50;99.90
13589;DHT22;6865;52.552;13.434;2023-02-28T05:58:28;-1.50;99.90
13589;DHT22;6865;52.552;13.434;2023-02-28T06:00:58;-1.50;99.90
13589;DHT22;6865;52.552;13.434;2023-02-28T06:03:25;-1.50;99.90
13589;DHT22;6865;52.552;13.434;2023-02-28T06:05:52;-1.50;99.90
13589;DHT22;6865;52.552;13.434;2023-02-28T06:08:19;-1.40;99.90
13589;DHT22;6865;52.552;13.434;2023-02-28T06:10:46;-1.50;99.90
13589;DHT22;6865;52.552;13.434;2023-02-28T06:13:12;-1.40;99.90
13589;DHT22;6865;52.552;13.434;2023-02-28T06:15:39;-1.90;99.90
13589;DHT22;6865;52.552;13.434;2023-02-28T06:18:06;-1.30;99.90
13589;DHT22;6865;52.552;13.434;2023-02-28T06:20:32;-1.30;99.90
13589;DHT22;6865;52.552;13.434;2023-02-28T06:22:59;-1.20;99.90
13589;DHT22;6865;52.552;13.434;2023-02-28T06:25:27;-1.20;99.90
13589;DHT22;6865;52.552;13.434;2023-02-28T06:27:54;-1.20;99.90
13589;DHT22;6865;52.552;13.434;2023-02-28T06:30:23;-1.20;99.90
13589;DHT22;6865;52.552;13.434;2023-02-28T06:32:54;-1.10;99.90
13589;DHT22;6865;52.552;13.434;2023-02-28T06:35:22;-1.10;99.90
13589;DHT22;6865;52.552;13.434;2023-02-28T06:37:48;-1.00;99.90
13589;DHT22;6865;52.552;13.434;2023-02-28T06:40:15;-0.80;99.90
13589;DHT22;6865;52.552;13.434;2023-02-28T06:42:42;-0.50;99.90
13589;DHT22;6865;52.552;13.434;2023-02-28T06:45:10;-0.30;99.90
13589;DHT22;6865;52.552;13.434;2023-02-28T06:47:38;-0.20;99.90
13589;DHT22;6865;52.552;13.434;2023-02-28T06:50:07;-0.10;99.90
13589;DHT22;6865;52.552;13.434;2023-02-28T06:52:34;0.00;99.90
13589;DHT22;6865;52.552;13.434;2023-02-28T06:55:07;0.00;99.90
13589;DHT22;6865;52.552;13.434;2023-02-28T06:57:35;0.30;99.90
13589;DHT22;6865;52.552;13.434;2023-02-28T07:00:06;0.70;99.90
13589;DHT22;6865;52.552;13.434;2023-02-28T07:02:35;1.30;99.90
13589;DHT22;6865;52.552;13.434;2023-02-28T07:05:02;1.60;99.90
13589;DHT22;6865;52.552;13.434;2023-02-28T07:07:44;1.70;99.90
13589;DHT22;6865;52.552;13.434;2023-02-28T07:10:13;1.50;99.90
13589;DHT22;6865;52.552;13.434;2023-02-28T07:12:45;1.30;99.90
13589;DHT22;6865;52.552;13.434;2023-02-28T07:15:12;1.10;99.90
13589;DHT22;6865;52.552;13.434;2023-02-28T07:17:39;1.90;99.90
13589;DHT22;6865;52.552;13.434;2023-02-28T07:20:06;0.70;99.90
13589;DHT22;6865;52.552;13.434;2023-02-28T07:22:33;0.50;99.90
13589;DHT22;6865;52.552;13.434;2023-02-28T07:24:59;0.60;99.90
13589;DHT22;6865;52.552;13.434;2023-02-28T07:27:26;0.50;99.90
13589;DHT22;6865;52.552;13.434;2023-02-28T07:29:53;0.50;99.90
13589;DHT22;6865;52.552;13.434;2023-02-28T07:32:21;0.40;99.90
13589;DHT22;6865;52.552;13.434;2023-02-28T07:34:47;0.40;99.90
13589;DHT22;6865;52.552;13.434;2023-02-28T07:37:14;0.50;99.90
13589;DHT22;6865;52.552;13.434;2023-02-28T07:39:41;0.60;99.90
13589;DHT22;6865;52.552;13.434;2023-02-28T07:42:09;0.60;99.90
13589;DHT22;6865;52.552;13.434;2023-02-28T07:44:39;0.70;99.90
13589;DHT22;6865;52.552;13.434;2023-02-28T07:47:08;0.90;99.90
13589;DHT22;6865;52.552;13.434;2023-02-28T07:49:37;1.00;99.90
13589;DHT22;6865;52.552;13.434;2023-02-28T07:52:06;1.00;99.90
13589;DHT22;6865;52.552;13.434;2023-02-28T07:54:33;1.10;99.90
13589;DHT22;6865;52.552;13.434;2023-02-28T07:57:00;1.20;99.90
13589;DHT22;6865;52.552;13.434;2023-02-28T07:59:26;1.40;99.90
13589;DHT22;6865;52.552;13.434;2023-02-28T08:01:57;1.60;99.90
13589;DHT22;6865;52.552;13.434;2023-02-28T08:04:24;1.70;99.90
13589;DHT22;6865;52.552;13.434;2023-02-28T08:06:51;1.70;99.90
13589;DHT22;6865;52.552;13.434;2023-02-28T08:09:19;1.90;99.90
13589;DHT22;6865;52.552;13.434;2023-02-28T08:11:46;1.90;99.90
13589;DHT22;6865;52.552;13.434;2023-02-28T08:14:13;2.00;99.90
13589;DHT22;6865;52.552;13.434;2023-02-28T08:16:40;2.10;99.90
13589;DHT22;6865;52.552;13.434;2023-02-28T08:19:06;2.20;99.90
13589;DHT22;6865;52.552;13.434;2023-02-28T08:21:33;2.30;99.90
13589;DHT22;6865;52.552;13.434;2023-02-28T08:24:00;2.40;99.90
13589;DHT22;6865;52.552;13.434;2023-02-28T08:26:26;2.50;99.90
13589;DHT22;6865;52.552;13.434;2023-02-28T08:28:53;2.60;99.90
13589;DHT22;6865;52.552;13.434;2023-02-28T08:31:22;2.60;99.90
13589;DHT22;6865;52.552;13.434;2023-02-28T08:33:49;2.70;99.90
13589;DHT22;6865;52.552;13.434;2023-02-28T08:36:18;2.80;99.90
13589;DHT22;6865;52.552;13.434;2023-02-28T08:38:45;2.90;99.90
13589;DHT22;6865;52.552;13.434;2023-02-28T08:41:12;3.00;99.90
13589;DHT22;6865;52.552;13.434;2023-02-28T08:43:40;3.00;99.90
13589;DHT22;6865;52.552;13.434;2023-02-28T08:46:07;3.20;99.90
13589;DHT22;6865;52.552;13.434;2023-02-28T08:48:35;3.30;99.90
13589;DHT22;6865;52.552;13.434;2023-02-28T08:51:07;3.40;99.90
13589;DHT22;6865;52.552;13.434;2023-02-28T08:53:36;3.40;99.50
13589;DHT22;6865;52.552;13.434;2023-02-28T08:56:13;3.50;98.70
13589;DHT22;6865;52.552;13.434;2023-02-28T08:58:40;3.60;98.10
13589;DHT22;6865;52.552;13.434;2023-02-28T09:01:12;3.70;97.30
13589;DHT22;6865;52.552;13.434;2023-02-28T09:03:40;3.70;96.00
13589;DHT22;6865;52.552;13.434;2023-02-28T09:06:09;3.70;96.50
13589;DHT22;6865;52.552;13.434;2023-02-28T09:08:36;3.80;96.10
13589;DHT22;6865;52.552;13.434;2023-02-28T09:11:04;4.00;96.10
13589;DHT22;6865;52.552;13.434;2023-02-28T09:13:31;4.00;95.00
13589;DHT22;6865;52.552;13.434;2023-02-28T09:16:00;4.10;94.50
13589;DHT22;6865;52.552;13.434;2023-02-28T09:18:28;4.00;94.60
13589;DHT22;6865;52.552;13.434;2023-02-28T09:20:55;4.00;94.80
13589;DHT22;6865;52.552;13.434;2023-02-28T09:23:22;4.00;94.20
13589;DHT22;6865;52.552;13.434;2023-02-28T09:25:51;4.00;94.60
13589;DHT22;6865;52.552;13.434;2023-02-28T09:28:19;4.10;94.30
13589;DHT22;6865;52.552;13.434;2023-02-28T09:30:49;4.30;93.20
13589;DHT22;6865;52.552;13.434;2023-02-28T09:33:17;4.30;93.10
13589;DHT22;6865;52.552;13.434;2023-02-28T09:35:44;4.50;92.70
13589;DHT22;6865;52.552;13.434;2023-02-28T09:38:10;4.50;92.90
13589;DHT22;6865;52.552;13.434;2023-02-28T09:40:58;4.50;92.30
13589;DHT22;6865;52.552;13.434;2023-02-28T09:43:29;4.60;92.40
13589;DHT22;6865;52.552;13.434;2023-02-28T09:46:14;4.80;92.10
13589;DHT22;6865;52.552;13.434;2023-02-28T09:48:47;4.90;91.70
13589;DHT22;6865;52.552;13.434;2023-02-28T09:51:34;4.90;91.10
13589;DHT22;6865;52.552;13.434;2023-02-28T09:54:03;5.00;91.20
13589;DHT22;6865;52.552;13.434;2023-02-28T09:56:36;5.00;91.10
13589;DHT22;6865;52.552;13.434;2023-02-28T10:02:12;5.10;90.70
13589;DHT22;6865;52.552;13.434;2023-02-28T10:04:47;5.10;90.30
13589;DHT22;6865;52.552;13.434;2023-02-28T10:07:45;5.10;90.30
13589;DHT22;6865;52.552;13.434;2023-02-28T10:12:59;4.90;90.10
13589;DHT22;6865;52.552;13.434;2023-02-28T10:15:31;4.90;90.20
13589;DHT22;6865;52.552;13.434;2023-02-28T10:18:01;5.10;90.30
13589;DHT22;6865;52.552;13.434;2023-02-28T10:20:38;5.10;90.20
13589;DHT22;6865;52.552;13.434;2023-02-28T10:23:16;5.20;89.80
13589;DHT22;6865;52.552;13.434;2023-02-28T10:25:54;5.20;89.20
13589;DHT22;6865;52.552;13.434;2023-02-28T10:28:21;5.30;89.90
13589;DHT22;6865;52.552;13.434;2023-02-28T10:30:50;5.20;89.60
13589;DHT22;6865;52.552;13.434;2023-02-28T10:33:22;5.10;88.50
13589;DHT22;6865;52.552;13.434;2023-02-28T10:35:49;5.40;88.10
13589;DHT22;6865;52.552;13.434;2023-02-28T10:38:23;5.50;88.00
13589;DHT22;6865;52.552;13.434;2023-02-28T10:40:50;5.50;89.00
13589;DHT22;6865;52.552;13.434;2023-02-28T10:43:23;5.60;88.30
13589;DHT22;6865;52.552;13.434;2023-02-28T10:46:01;5.60;86.90
13589;DHT22;6865;52.552;13.434;2023-02-28T10:48:46;5.60;86.90
13589;DHT22;6865;52.552;13.434;2023-02-28T10:51:16;5.70;87.50
13589;DHT22;6865;52.552;13.434;2023-02-28T10:53:54;5.70;86.60
13589;DHT22;6865;52.552;13.434;2023-02-28T10:56:29;5.70;85.90
13589;DHT22;6865;52.552;13.434;2023-02-28T10:59:26;5.70;85.40
13589;DHT22;6865;52.552;13.434;2023-02-28T11:01:53;5.70;85.60
13589;DHT22;6865;52.552;13.434;2023-02-28T11:04:34;5.50;86.10
13589;DHT22;6865;52.552;13.434;2023-02-28T11:07:19;5.10;85.80
13589;DHT22;6865;52.552;13.434;2023-02-28T11:09:54;5.90;84.70
13589;DHT22;6865;52.552;13.434;2023-02-28T11:12:40;5.70;84.40
13589;DHT22;6865;52.552;13.434;2023-02-28T11:15:23;5.70;84.90
13589;DHT22;6865;52.552;13.434;2023-02-28T11:18:00;5.70;84.40
13589;DHT22;6865;52.552;13.434;2023-02-28T11:20:30;5.70;85.50
13589;DHT22;6865;52.552;13.434;2023-02-28T11:22:58;5.70;85.20
13589;DHT22;6865;52.552;13.434;2023-02-28T11:25:30;5.80;86.60
13589;DHT22;6865;52.552;13.434;2023-02-28T11:28:00;5.80;84.80
13589;DHT22;6865;52.552;13.434;2023-02-28T11:30:31;5.70;85.00
13589;DHT22;6865;52.552;13.434;2023-02-28T11:33:00;5.80;86.40
13589;DHT22;6865;52.552;13.434;2023-02-28T11:35:33;5.80;85.10
13589;DHT22;6865;52.552;13.434;2023-02-28T11:38:02;5.80;84.50
13589;DHT22;6865;52.552;13.434;2023-02-28T11:40:49;5.80;85.10
13589;DHT22;6865;52.552;13.434;2023-02-28T11:46:33;6.00;85.20
13589;DHT22;6865;52.552;13.434;2023-02-28T11:49:18;6.10;85.20
13589;DHT22;6865;52.552;13.434;2023-02-28T11:52:06;6.20;84.90
13589;DHT22;6865;52.552;13.434;2023-02-28T11:54:39;6.20;84.40
13589;DHT22;6865;52.552;13.434;2023-02-28T12:05:53;6.20;83.30
13589;DHT22;6865;52.552;13.434;2023-02-28T12:08:42;6.20;83.80
13589;DHT22;6865;52.552;13.434;2023-02-28T12:20:05;6.10;82.20
13589;DHT22;6865;52.552;13.434;2023-02-28T12:22:47;6.00;82.80
13589;DHT22;6865;52.552;13.434;2023-02-28T12:25:37;6.00;83.20
13589;DHT22;6865;52.552;13.434;2023-02-28T12:28:10;6.00;84.10
13589;DHT22;6865;52.552;13.434;2023-02-28T12:30:45;6.20;84.50
13589;DHT22;6865;52.552;13.434;2023-02-28T12:33:21;6.30;84.60
13589;DHT22;6865;52.552;13.434;2023-02-28T12:35:58;6.30;84.60
13589;DHT22;6865;52.552;13.434;2023-02-28T12:38:34;6.40;85.20
13589;DHT22;6865;52.552;13.434;2023-02-28T12:44:11;6.50;84.50
13589;DHT22;6865;52.552;13.434;2023-02-28T12:46:42;6.50;84.80
13589;DHT22;6865;52.552;13.434;2023-02-28T12:49:19;6.50;84.10
13589;DHT22;6865;52.552;13.434;2023-02-28T12:51:48;6.50;84.40
13589;DHT22;6865;52.552;13.434;2023-02-28T12:57:13;6.40;83.90
13589;DHT22;6865;52.552;13.434;2023-02-28T12:59:51;6.40;84.30
13589;DHT22;6865;52.552;13.434;2023-02-28T13:05:23;6.50;84.40
13589;DHT22;6865;52.552;13.434;2023-02-28T13:08:20;6.60;83.30
13589;DHT22;6865;52.552;13.434;2023-02-28T13:10:51;6.60;82.50
13589;DHT22;6865;52.552;13.434;2023-02-28T13:13:26;6.50;82.50
13589;DHT22;6865;52.552;13.434;2023-02-28T13:16:02;6.50;82.70
13589;DHT22;6865;52.552;13.434;2023-02-28T13:21:00;6.70;83.40
13589;DHT22;6865;52.552;13.434;2023-02-28T13:26:18;6.70;82.50
13589;DHT22;6865;52.552;13.434;2023-02-28T13:31:19;6.70;81.60
13589;DHT22;6865;52.552;13.434;2023-02-28T13:38:51;6.60;79.80
13589;DHT22;6865;52.552;13.434;2023-02-28T13:44:17;6.60;81.70
13589;DHT22;6865;52.552;13.434;2023-02-28T14:00:46;7.50;79.80
13589;DHT22;6865;52.552;13.434;2023-02-28T14:06:35;7.40;78.10
13589;DHT22;6865;52.552;13.434;2023-02-28T14:09:23;6.40;78.00
13589;DHT22;6865;52.552;13.434;2023-02-28T14:11:51;7.20;78.50
13589;DHT22;6865;52.552;13.434;2023-02-28T14:17:14;6.30;79.10
13589;DHT22;6865;52.552;13.434;2023-02-28T14:19:45;6.70;79.40
13589;DHT22;6865;52.552;13.434;2023-02-28T14:22:45;6.70;79.30
13589;DHT22;6865;52.552;13.434;2023-02-28T14:26:10;6.60;79.50
13589;DHT22;6865;52.552;13.434;2023-02-28T14:28:39;6.60;80.20
13589;DHT22;6865;52.552;13.434;2023-02-28T14:31:18;6.60;79.70
13589;DHT22;6865;52.552;13.434;2023-02-28T14:36:53;6.60;80.90
13589;DHT22;6865;52.552;13.434;2023-02-28T14:39:25;6.70;82.00
13589;DHT22;6865;52.552;13.434;2023-02-28T14:41:52;6.60;82.60
13589;DHT22;6865;52.552;13.434;2023-02-28T14:44:22;6.70;82.70
13589;DHT22;6865;52.552;13.434;2023-02-28T14:46:54;6.60;82.60
13589;DHT22;6865;52.552;13.434;2023-02-28T14:49:29;6.60;83.10
13589;DHT22;6865;52.552;13.434;2023-02-28T14:54:37;6.50;82.80
13589;DHT22;6865;52.552;13.434;2023-02-28T14:57:05;6.40;83.30
13589;DHT22;6865;52.552;13.434;2023-02-28T14:59:34;6.30;84.10
13589;DHT22;6865;52.552;13.434;2023-02-28T15:02:18;6.30;84.60
13589;DHT22;6865;52.552;13.434;2023-02-28T15:04:56;6.30;84.10
13589;DHT22;6865;52.552;13.434;2023-02-28T15:07:24;6.30;83.90
13589;DHT22;6865;52.552;13.434;2023-02-28T15:10:27;6.30;83.80
13589;DHT22;6865;52.552;13.434;2023-02-28T15:13:02;6.30;84.10
13589;DHT22;6865;52.552;13.434;2023-02-28T15:15:53;6.30;84.40
13589;DHT22;6865;52.552;13.434;2023-02-28T15:18:40;6.30;83.40
13589;DHT22;6865;52.552;13.434;2023-02-28T15:21:14;6.30;84.50
13589;DHT22;6865;52.552;13.434;2023-02-28T15:23:53;6.30;82.90
13589;DHT22;6865;52.552;13.434;2023-02-28T15:26:25;6.30;83.00
13589;DHT22;6865;52.552;13.434;2023-02-28T15:28:59;6.20;83.30
13589;DHT22;6865;52.552;13.434;2023-02-28T15:31:40;6.00;84.00
13589;DHT22;6865;52.552;13.434;2023-02-28T15:37:47;5.80;85.30
13589;DHT22;6865;52.552;13.434;2023-02-28T15:40:16;5.70;85.50
13589;DHT22;6865;52.552;13.434;2023-02-28T15:43:07;5.70;85.90
13589;DHT22;6865;52.552;13.434;2023-02-28T15:45:44;5.70;86.20
13589;DHT22;6865;52.552;13.434;2023-02-28T15:48:18;5.60;86.30
13589;DHT22;6865;52.552;13.434;2023-02-28T15:50:54;5.50;86.80
13589;DHT22;6865;52.552;13.434;2023-02-28T15:53:26;5.50;87.00
13589;DHT22;6865;52.552;13.434;2023-02-28T15:55:58;5.40;87.60
13589;DHT22;6865;52.552;13.434;2023-02-28T15:58:25;5.50;87.70
13589;DHT22;6865;52.552;13.434;2023-02-28T16:01:06;5.40;87.80
13589;DHT22;6865;52.552;13.434;2023-02-28T16:03:44;5.40;88.50
13589;DHT22;6865;52.552;13.434;2023-02-28T16:06:33;5.40;88.20
13589;DHT22;6865;52.552;13.434;2023-02-28T16:09:02;5.30;88.00
13589;DHT22;6865;52.552;13.434;2023-02-28T16:11:29;5.30;87.90
13589;DHT22;6865;52.552;13.434;2023-02-28T16:13:57;5.30;88.30
13589;DHT22;6865;52.552;13.434;2023-02-28T16:16:26;5.20;88.40
13589;DHT22;6865;52.552;13.434;2023-02-28T16:18:53;5.10;88.80
13589;DHT22;6865;52.552;13.434;2023-02-28T16:21:20;5.00;89.20
13589;DHT22;6865;52.552;13.434;2023-02-28T16:23:47;5.00;89.40
13589;DHT22;6865;52.552;13.434;2023-02-28T16:26:19;4.90;89.60
13589;DHT22;6865;52.552;13.434;2023-02-28T16:28:51;4.80;90.10
13589;DHT22;6865;52.552;13.434;2023-02-28T16:31:21;4.70;90.20
13589;DHT22;6865;52.552;13.434;2023-02-28T16:33:48;4.70;90.20
13589;DHT22;6865;52.552;13.434;2023-02-28T16:36:17;4.70;90.20
13589;DHT22;6865;52.552;13.434;2023-02-28T16:38:44;4.70;89.90
13589;DHT22;6865;52.552;13.434;2023-02-28T16:41:22;6.50;90.40
13589;DHT22;6865;52.552;13.434;2023-02-28T16:43:52;4.60;90.00
13589;DHT22;6865;52.552;13.434;2023-02-28T16:46:20;4.60;89.90
13589;DHT22;6865;52.552;13.434;2023-02-28T16:48:47;4.60;89.90
13589;DHT22;6865;52.552;13.434;2023-02-28T16:51:18;4.50;90.00
13589;DHT22;6865;52.552;13.434;2023-02-28T16:53:45;4.50;90.00
13589;DHT22;6865;52.552;13.434;2023-02-28T16:56:19;4.40;90.00
13589;DHT22;6865;52.552;13.434;2023-02-28T16:58:46;4.40;90.10
13589;DHT22;6865;52.552;13.434;2023-02-28T17:01:14;4.30;90.30
13589;DHT22;6865;52.552;13.434;2023-02-28T17:03:41;4.30;90.50
13589;DHT22;6865;52.552;13.434;2023-02-28T17:06:26;4.30;90.50
13589;DHT22;6865;52.552;13.434;2023-02-28T17:08:55;4.20;90.60
13589;DHT22;6865;52.552;13.434;2023-02-28T17:11:23;4.10;90.70
13589;DHT22;6865;52.552;13.434;2023-02-28T17:13:50;2.80;90.60
13589;DHT22;6865;52.552;13.434;2023-02-28T17:16:27;4.00;90.90
13589;DHT22;6865;52.552;13.434;2023-02-28T17:18:59;4.00;91.10
13589;DHT22;6865;52.552;13.434;2023-02-28T17:21:26;3.90;91.40
13589;DHT22;6865;52.552;13.434;2023-02-28T17:23:53;3.70;91.50
13589;DHT22;6865;52.552;13.434;2023-02-28T17:26:21;3.70;91.60
13589;DHT22;6865;52.552;13.434;2023-02-28T17:28:48;3.70;91.80
13589;DHT22;6865;52.552;13.434;2023-02-28T17:31:15;3.60;91.90
13589;DHT22;6865;52.552;13.434;2023-02-28T17:33:42;3.50;92.10
13589;DHT22;6865;52.552;13.434;2023-02-28T17:36:13;3.60;92.30
13589;DHT22;6865;52.552;13.434;2023-02-28T17:38:40;3.70;92.40
13589;DHT22;6865;52.552;13.434;2023-02-28T17:41:10;3.70;92.50
13589;DHT22;6865;52.552;13.434;2023-02-28T17:43:38;3.60;92.40